sensor_id;sensor_type;location;lat;lon;timestamp;pressure;altitude;pressure_sealevel;temperature;humidity
4836;BME280;66719;51.226;6.902;2023-04-08T00:01:21;101305.69;;;8.21;100.00
4836;BME280;66719;51.226;6.902;2023-04-08T00:03:48;101304.81;;;8.20;100.00
4836;BME280;66719;51.226;6.902;2023-04-08T00:06:15;101315.25;;;8.22;100.00
4836;BME280;66719;51.226;6.902;2023-04-08T00:08:41;101308.31;;;8.21;100.00
4836;BME280;66719;51.226;6.902;2023-04-08T00:11:08;101312.66;;;8.22;100.00
4836;BME280;66719;51.226;6.902;2023-04-08T00:13:34;101313.50;;;8.22;100.00
4836;BME280;66719;51.226;6.902;2023-04-08T00:16:01;101317.00;;;8.21;100.00
4836;BME280;66719;51.226;6.902;2023-04-08T00:18:28;101307.44;;;8.19;100.00
4836;BME280;66719;51.226;6.902;2023-04-08T00:20:54;101319.63;;;8.20;100.00
4836;BME280;66719;51.226;6.902;2023-04-08T00:23:22;101311.78;;;8.18;100.00
4836;BME280;66719;51.226;6.902;2023-04-08T00:25:49;101311.78;;;8.18;100.00
4836;BME280;66719;51.226;6.902;2023-04-08T00:28:16;101310.03;;;8.20;100.00
4836;BME280;66719;51.226;6.902;2023-04-08T00:30:42;101309.19;;;8.21;100.00
4836;BME280;66719;51.226;6.902;2023-04-08T00:33:09;101318.75;;;8.21;100.00
4836;BME280;66719;51.226;6.902;2023-04-08T00:35:35;101310.91;;;8.22;100.00
4836;BME280;66719;51.226;6.902;2023-04-08T00:38:02;101310.03;;;8.23;100.00
4836;BME280;66719;51.226;6.902;2023-04-08T00:40:29;101311.78;;;8.21;100.00
4836;BME280;66719;51.226;6.902;2023-04-08T00:42:56;101310.03;;;8.22;100.00
4836;BME280;66719;51.226;6.902;2023-04-08T00:45:23;101310.03;;;8.20;100.00
4836;BME280;66719;51.226;6.902;2023-04-08T00:47:50;101315.25;;;8.20;100.00
4836;BME280;66719;51.226;6.902;2023-04-08T00:50:18;101319.59;;;8.21;100.00
4836;BME280;66719;51.226;6.902;2023-04-08T00:52:45;101323.09;;;8.20;100.00
4836;BME280;66719;51.226;6.902;2023-04-08T00:55:12;101312.66;;;8.17;100.00
4836;BME280;66719;51.226;6.902;2023-04-08T00:57:38;101312.66;;;8.17;100.00
4836;BME280;66719;51.226;6.902;2023-04-08T01:00:05;101317.00;;;8.20;100.00
4836;BME280;66719;51.226;6.902;2023-04-08T01:02:50;101317.88;;;8.20;100.00
4836;BME280;66719;51.226;6.902;2023-04-08T01:08:28;101324.81;;;8.25;100.00
4836;BME280;66719;51.226;6.902;2023-04-08T01:11:00;101323.97;;;8.27;100.00
4836;BME280;66719;51.226;6.902;2023-04-08T01:13:29;101330.94;;;8.27;100.00
4836;BME280;66719;51.226;6.902;2023-04-08T01:15:56;101332.63;;;8.25;100.00
4836;BME280;66719;51.226;6.902;2023-04-08T01:18:23;101328.28;;;8.23;100.00
4836;BME280;66719;51.226;6.902;2023-04-08T01:20:50;101330.03;;;8.21;100.00
4836;BME280;66719;51.226;6.902;2023-04-08T01:26:04;101324.81;;;8.20;100.00
4836;BME280;66719;51.226;6.902;2023-04-08T01:28:32;101331.78;;;8.18;100.00
4836;BME280;66719;51.226;6.902;2023-04-08T01:31:01;101332.66;;;8.18;100.00
4836;BME280;66719;51.226;6.902;2023-04-08T01:33:28;101333.53;;;8.17;100.00
4836;BME280;66719;51.226;6.902;2023-04-08T01:35:56;101342.22;;;8.19;100.00
4836;BME280;66719;51.226;6.902;2023-04-08T01:38:25;101342.22;;;8.21;100.00
4836;BME280;66719;51.226;6.902;2023-04-08T01:40:53;101341.34;;;8.22;100.00
4836;BME280;66719;51.226;6.902;2023-04-08T01:43:21;101333.50;;;8.22;100.00
4836;BME280;66719;51.226;6.902;2023-04-08T01:45:49;101334.38;;;8.24;100.00
4836;BME280;66719;51.226;6.902;2023-04-08T01:48:19;101337.03;;;8.26;100.00
4836;BME280;66719;51.226;6.902;2023-04-08T01:50:46;101329.19;;;8.26;100.00
4836;BME280;66719;51.226;6.902;2023-04-08T01:53:14;101327.41;;;8.25;100.00
4836;BME280;66719;51.226;6.902;2023-04-08T01:55:41;101336.16;;;8.27;100.00
4836;BME280;66719;51.226;6.902;2023-04-08T01:58:11;101332.66;;;8.26;100.00
4836;BME280;66719;51.226;6.902;2023-04-08T02:00:43;101329.16;;;8.24;100.00
4836;BME280;66719;51.226;6.902;2023-04-08T02:03:11;101331.81;;;8.26;100.00
4836;BME280;66719;51.226;6.902;2023-04-08T02:05:38;101337.03;;;8.26;100.00
4836;BME280;66719;51.226;6.902;2023-04-08T02:08:05;101337.00;;;8.22;100.00
4836;BME280;66719;51.226;6.902;2023-04-08T02:10:32;101330.03;;;8.23;100.00
4836;BME280;66719;51.226;6.902;2023-04-08T02:12:58;101331.78;;;8.22;100.00
4836;BME280;66719;51.226;6.902;2023-04-08T02:15:26;101330.03;;;8.25;100.00
4836;BME280;66719;51.226;6.902;2023-04-08T02:17:55;101340.50;;;8.26;100.00
4836;BME280;66719;51.226;6.902;2023-04-08T02:20:31;101342.22;;;8.27;100.00
4836;BME280;66719;51.226;6.902;2023-04-08T02:23:19;101338.72;;;8.25;100.00
4836;BME280;66719;51.226;6.902;2023-04-08T02:25:46;101343.06;;;8.25;100.00
4836;BME280;66719;51.226;6.902;2023-04-08T02:28:14;101335.28;;;8.26;100.00
4836;BME280;66719;51.226;6.902;2023-04-08T02:30:49;101340.50;;;8.26;100.00
4836;BME280;66719;51.226;6.902;2023-04-08T02:33:22;101339.63;;;8.26;100.00
4836;BME280;66719;51.226;6.902;2023-04-08T02:35:50;101334.38;;;8.24;100.00
4836;BME280;66719;51.226;6.902;2023-04-08T02:38:20;101344.81;;;8.24;100.00
4836;BME280;66719;51.226;6.902;2023-04-08T02:40:48;101337.00;;;8.24;100.00
4836;BME280;66719;51.226;6.902;2023-04-08T02:43:15;101342.22;;;8.21;100.00
4836;BME280;66719;51.226;6.902;2023-04-08T02:45:43;101343.09;;;8.21;100.00
4836;BME280;66719;51.226;6.902;2023-04-08T02:48:10;101341.34;;;8.22;100.00
4836;BME280;66719;51.226;6.902;2023-04-08T02:50:36;101344.81;;;8.22;100.00
4836;BME280;66719;51.226;6.902;2023-04-08T02:53:03;101342.22;;;8.21;100.00
4836;BME280;66719;51.226;6.902;2023-04-08T02:55:29;101347.44;;;8.19;100.00
4836;BME280;66719;51.226;6.902;2023-04-08T02:57:56;101355.25;;;8.18;100.00
4836;BME280;66719;51.226;6.902;2023-04-08T03:00:22;101350.91;;;8.17;100.00
4836;BME280;66719;51.226;6.902;2023-04-08T03:02:49;101353.53;;;8.18;100.00
4836;BME280;66719;51.226;6.902;2023-04-08T03:05:15;101351.78;;;8.17;100.00
4836;BME280;66719;51.226;6.902;2023-04-08T03:07:42;101357.00;;;8.17;100.00
4836;BME280;66719;51.226;6.902;2023-04-08T03:10:09;101361.31;;;8.15;100.00
4836;BME280;66719;51.226;6.902;2023-04-08T03:12:36;101362.19;;;8.14;100.00
4836;BME280;66719;51.226;6.902;2023-04-08T03:15:02;101351.75;;;8.14;100.00
4836;BME280;66719;51.226;6.902;2023-04-08T03:17:29;101353.50;;;8.12;100.00
4836;BME280;66719;51.226;6.902;2023-04-08T03:19:59;101353.50;;;8.11;100.00
4836;BME280;66719;51.226;6.902;2023-04-08T03:22:26;101352.59;;;8.07;100.00
4836;BME280;66719;51.226;6.902;2023-04-08T03:24:53;101359.56;;;8.05;100.00
4836;BME280;66719;51.226;6.902;2023-04-08T03:27:19;101363.91;;;8.06;100.00
4836;BME280;66719;51.226;6.902;2023-04-08T03:29:45;101357.84;;;8.06;100.00
4836;BME280;66719;51.226;6.902;2023-04-08T03:32:13;101362.22;;;8.08;100.00
4836;BME280;66719;51.226;6.902;2023-04-08T03:34:40;101356.09;;;8.05;100.00
4836;BME280;66719;51.226;6.902;2023-04-08T03:37:06;101362.19;;;8.05;100.00
4836;BME280;66719;51.226;6.902;2023-04-08T03:39:33;101357.84;;;8.06;100.00
4836;BME280;66719;51.226;6.902;2023-04-08T03:41:59;101356.97;;;8.05;100.00
4836;BME280;66719;51.226;6.902;2023-04-08T03:44:28;101365.66;;;8.07;100.00
4836;BME280;66719;51.226;6.902;2023-04-08T03:46:54;101360.44;;;8.06;100.00
4836;BME280;66719;51.226;6.902;2023-04-08T03:49:21;101360.44;;;8.06;100.00
4836;BME280;66719;51.226;6.902;2023-04-08T03:51:47;101368.25;;;8.06;100.00
4836;BME280;66719;51.226;6.902;2023-04-08T03:54:14;101364.78;;;8.05;100.00
4836;BME280;66719;51.226;6.902;2023-04-08T03:56:41;101370.88;;;8.01;100.00
4836;BME280;66719;51.226;6.902;2023-04-08T03:59:07;101361.28;;;7.99;100.00
4836;BME280;66719;51.226;6.902;2023-04-08T04:01:34;101370.84;;;7.98;100.00
4836;BME280;66719;51.226;6.902;2023-04-08T04:04:00;101361.28;;;7.96;100.00
4836;BME280;66719;51.226;6.902;2023-04-08T04:06:27;101363.91;;;7.96;100.00
4836;BME280;66719;51.226;6.902;2023-04-08T04:08:54;101370.84;;;7.97;100.00
4836;BME280;66719;51.226;6.902;2023-04-08T04:11:20;101365.63;;;7.95;100.00
4836;BME280;66719;51.226;6.902;2023-04-08T04:13:47;101370.84;;;7.95;100.00
4836;BME280;66719;51.226;6.902;2023-04-08T04:16:14;101366.47;;;7.86;100.00
4836;BME280;66719;51.226;6.902;2023-04-08T04:18:41;101374.31;;;7.88;100.00
4836;BME280;66719;51.226;6.902;2023-04-08T04:21:07;101369.09;;;7.85;100.00
4836;BME280;66719;51.226;6.902;2023-04-08T04:23:34;101371.69;;;7.82;100.00
4836;BME280;66719;51.226;6.902;2023-04-08T04:26:00;101382.13;;;7.83;100.00
4836;BME280;66719;51.226;6.902;2023-04-08T04:28:27;101380.38;;;7.84;100.00
4836;BME280;66719;51.226;6.902;2023-04-08T04:30:53;101383.84;;;7.84;100.00
4836;BME280;66719;51.226;6.902;2023-04-08T04:33:21;101391.69;;;7.86;100.00
4836;BME280;66719;51.226;6.902;2023-04-08T04:35:48;101391.69;;;7.86;100.00
4836;BME280;66719;51.226;6.902;2023-04-08T04:38:14;101397.72;;;7.79;100.00
4836;BME280;66719;51.226;6.902;2023-04-08T04:40:41;101396.00;;;7.78;100.00
4836;BME280;66719;51.226;6.902;2023-04-08T04:43:07;101403.81;;;7.81;100.00
4836;BME280;66719;51.226;6.902;2023-04-08T04:45:34;101403.84;;;7.82;100.00
4836;BME280;66719;51.226;6.902;2023-04-08T04:48:01;101402.06;;;7.80;100.00
4836;BME280;66719;51.226;6.902;2023-04-08T04:50:28;101404.69;;;7.81;100.00
4836;BME280;66719;51.226;6.902;2023-04-08T04:52:55;101410.78;;;7.82;100.00
4836;BME280;66719;51.226;6.902;2023-04-08T04:55:22;101406.41;;;7.81;100.00
4836;BME280;66719;51.226;6.902;2023-04-08T04:57:48;101402.97;;;7.82;100.00
4836;BME280;66719;51.226;6.902;2023-04-08T05:00:15;101400.38;;;7.82;100.00
4836;BME280;66719;51.226;6.902;2023-04-08T05:02:42;101397.72;;;7.77;100.00
4836;BME280;66719;51.226;6.902;2023-04-08T05:05:09;101398.59;;;7.75;100.00
4836;BME280;66719;51.226;6.902;2023-04-08T05:07:36;101401.16;;;7.72;100.00
4836;BME280;66719;51.226;6.902;2023-04-08T05:10:04;101400.31;;;7.70;100.00
4836;BME280;66719;51.226;6.902;2023-04-08T05:12:31;101407.25;;;7.68;100.00
4836;BME280;66719;51.226;6.902;2023-04-08T05:14:57;101409.84;;;7.64;100.00
4836;BME280;66719;51.226;6.902;2023-04-08T05:17:27;101409.81;;;7.58;100.00
4836;BME280;66719;51.226;6.902;2023-04-08T05:19:53;101405.47;;;7.56;100.00
4836;BME280;66719;51.226;6.902;2023-04-08T05:22:20;101417.59;;;7.52;100.00
4836;BME280;66719;51.226;6.902;2023-04-08T05:24:47;101415.81;;;7.45;100.00
4836;BME280;66719;51.226;6.902;2023-04-08T05:27:14;101429.75;;;7.47;100.00
4836;BME280;66719;51.226;6.902;2023-04-08T05:29:40;101433.19;;;7.46;100.00
4836;BME280;66719;51.226;6.902;2023-04-08T05:32:07;101425.38;;;7.46;100.00
4836;BME280;66719;51.226;6.902;2023-04-08T05:34:34;101437.56;;;7.47;100.00
4836;BME280;66719;51.226;6.902;2023-04-08T05:37:00;101430.63;;;7.48;100.00
4836;BME280;66719;51.226;6.902;2023-04-08T05:39:27;101427.97;;;7.43;100.00
4836;BME280;66719;51.226;6.902;2023-04-08T05:41:53;101433.19;;;7.43;100.00
4836;BME280;66719;51.226;6.902;2023-04-08T05:44:20;101434.03;;;7.41;100.00
4836;BME280;66719;51.226;6.902;2023-04-08T05:46:46;101445.31;;;7.41;100.00
4836;BME280;66719;51.226;6.902;2023-04-08T05:49:13;101442.69;;;7.38;100.00
4836;BME280;66719;51.226;6.902;2023-04-08T05:51:40;101443.53;;;7.37;100.00
4836;BME280;66719;51.226;6.902;2023-04-08T05:54:07;101456.63;;;7.40;100.00
4836;BME280;66719;51.226;6.902;2023-04-08T05:56:34;101451.41;;;7.43;100.00
4836;BME280;66719;51.226;6.902;2023-04-08T05:59:01;101459.22;;;7.46;100.00
4836;BME280;66719;51.226;6.902;2023-04-08T06:01:27;101460.13;;;7.48;100.00
4836;BME280;66719;51.226;6.902;2023-04-08T06:03:54;101463.63;;;7.50;100.00
4836;BME280;66719;51.226;6.902;2023-04-08T06:06:23;101461.00;;;7.50;100.00
4836;BME280;66719;51.226;6.902;2023-04-08T06:08:53;101460.13;;;7.48;100.00
4836;BME280;66719;51.226;6.902;2023-04-08T06:11:19;101460.16;;;7.50;100.00
4836;BME280;66719;51.226;6.902;2023-04-08T06:13:46;101466.19;;;7.44;100.00
4836;BME280;66719;51.226;6.902;2023-04-08T06:16:15;101468.81;;;7.47;100.00
4836;BME280;66719;51.226;6.902;2023-04-08T06:18:46;101466.22;;;7.53;100.00
4836;BME280;66719;51.226;6.902;2023-04-08T06:21:14;101465.38;;;7.54;100.00
4836;BME280;66719;51.226;6.902;2023-04-08T06:23:40;101475.78;;;7.54;100.00
4836;BME280;66719;51.226;6.902;2023-04-08T06:26:07;101483.59;;;7.53;100.00
4836;BME280;66719;51.226;6.902;2023-04-08T06:28:33;101475.78;;;7.53;100.00
4836;BME280;66719;51.226;6.902;2023-04-08T06:31:00;101486.25;;;7.60;100.00
4836;BME280;66719;51.226;6.902;2023-04-08T06:33:26;101481.03;;;7.59;100.00
4836;BME280;66719;51.226;6.902;2023-04-08T06:36:11;101487.13;;;7.62;100.00
4836;BME280;66719;51.226;6.902;2023-04-08T06:38:38;101490.63;;;7.64;100.00
4836;BME280;66719;51.226;6.902;2023-04-08T06:41:05;101492.38;;;7.65;100.00
4836;BME280;66719;51.226;6.902;2023-04-08T06:43:33;101495.00;;;7.67;100.00
4836;BME280;66719;51.226;6.902;2023-04-08T06:46:00;101492.38;;;7.67;100.00
4836;BME280;66719;51.226;6.902;2023-04-08T06:48:26;101487.16;;;7.65;100.00
4836;BME280;66719;51.226;6.902;2023-04-08T06:50:56;101497.56;;;7.62;100.00
4836;BME280;66719;51.226;6.902;2023-04-08T06:53:23;101493.22;;;7.63;100.00
4836;BME280;66719;51.226;6.902;2023-04-08T06:55:50;101499.34;;;7.67;100.00
4836;BME280;66719;51.226;6.902;2023-04-08T06:58:17;101496.69;;;7.62;100.00
4836;BME280;66719;51.226;6.902;2023-04-08T07:00:44;101508.88;;;7.64;100.00
4836;BME280;66719;51.226;6.902;2023-04-08T07:03:10;101504.44;;;7.54;100.00
4836;BME280;66719;51.226;6.902;2023-04-08T07:05:37;101505.38;;;7.62;100.00
4836;BME280;66719;51.226;6.902;2023-04-08T07:08:04;101508.88;;;7.68;100.00
4836;BME280;66719;51.226;6.902;2023-04-08T07:10:31;101513.28;;;7.78;100.00
4836;BME280;66719;51.226;6.902;2023-04-08T07:12:58;101515.03;;;7.79;100.00
4836;BME280;66719;51.226;6.902;2023-04-08T07:15:24;101515.03;;;7.76;100.00
4836;BME280;66719;51.226;6.902;2023-04-08T07:17:51;101521.97;;;7.80;100.00
4836;BME280;66719;51.226;6.902;2023-04-08T07:20:18;101516.81;;;7.83;100.00
4836;BME280;66719;51.226;6.902;2023-04-08T07:22:44;101521.16;;;7.85;100.00
4836;BME280;66719;51.226;6.902;2023-04-08T07:25:11;101522.03;;;7.86;100.00
4836;BME280;66719;51.226;6.902;2023-04-08T07:27:37;101527.25;;;7.86;100.00
4836;BME280;66719;51.226;6.902;2023-04-08T07:30:04;101530.72;;;7.85;100.00
4836;BME280;66719;51.226;6.902;2023-04-08T07:32:32;101532.47;;;7.90;100.00
4836;BME280;66719;51.226;6.902;2023-04-08T07:35:00;101536.81;;;7.87;100.00
4836;BME280;66719;51.226;6.902;2023-04-08T07:37:27;101533.31;;;7.88;100.00
4836;BME280;66719;51.226;6.902;2023-04-08T07:39:53;101538.59;;;7.92;100.00
4836;BME280;66719;51.226;6.902;2023-04-08T07:42:20;101542.03;;;7.88;100.00
4836;BME280;66719;51.226;6.902;2023-04-08T07:44:47;101541.13;;;7.85;100.00
4836;BME280;66719;51.226;6.902;2023-04-08T07:47:13;101547.22;;;7.85;100.00
4836;BME280;66719;51.226;6.902;2023-04-08T07:49:40;101548.91;;;7.80;100.00
4836;BME280;66719;51.226;6.902;2023-04-08T07:52:06;101556.78;;;7.85;100.00
4836;BME280;66719;51.226;6.902;2023-04-08T07:54:33;101555.97;;;7.92;100.00
4836;BME280;66719;51.226;6.902;2023-04-08T07:56:59;101560.31;;;7.91;100.00
4836;BME280;66719;51.226;6.902;2023-04-08T07:59:28;101553.31;;;7.89;100.00
4836;BME280;66719;51.226;6.902;2023-04-08T08:01:54;101562.91;;;7.91;100.00
4836;BME280;66719;51.226;6.902;2023-04-08T08:04:21;101569.88;;;7.99;100.00
4836;BME280;66719;51.226;6.902;2023-04-08T08:06:51;101567.31;;;8.03;100.00
4836;BME280;66719;51.226;6.902;2023-04-08T08:09:17;101572.56;;;8.11;100.00
4836;BME280;66719;51.226;6.902;2023-04-08T08:11:44;101570.84;;;8.10;100.00
4836;BME280;66719;51.226;6.902;2023-04-08T08:14:10;101576.88;;;8.04;100.00
4836;BME280;66719;51.226;6.902;2023-04-08T08:16:39;101577.78;;;8.12;100.00
4836;BME280;66719;51.226;6.902;2023-04-08T08:19:05;101583.00;;;8.11;100.00
4836;BME280;66719;51.226;6.902;2023-04-08T08:21:37;101593.44;;;8.09;100.00
4836;BME280;66719;51.226;6.902;2023-04-08T08:24:05;101595.19;;;8.12;100.00
4836;BME280;66719;51.226;6.902;2023-04-08T08:26:35;101597.78;;;8.12;100.00
4836;BME280;66719;51.226;6.902;2023-04-08T08:29:04;101595.19;;;8.16;100.00
4836;BME280;66719;51.226;6.902;2023-04-08T08:31:31;101601.28;;;8.12;100.00
4836;BME280;66719;51.226;6.902;2023-04-08T08:33:58;101616.94;;;8.15;100.00
4836;BME280;66719;51.226;6.902;2023-04-08T08:36:24;101607.34;;;8.10;100.00
4836;BME280;66719;51.226;6.902;2023-04-08T08:38:52;101608.22;;;8.09;100.00
4836;BME280;66719;51.226;6.902;2023-04-08T08:41:20;101604.75;;;8.10;100.00
4836;BME280;66719;51.226;6.902;2023-04-08T08:43:47;101599.53;;;8.14;100.00
4836;BME280;66719;51.226;6.902;2023-04-08T08:46:16;101605.66;;;8.21;100.00
4836;BME280;66719;51.226;6.902;2023-04-08T08:48:44;101609.97;;;8.14;100.00
4836;BME280;66719;51.226;6.902;2023-04-08T08:51:11;101601.28;;;8.15;100.00
4836;BME280;66719;51.226;6.902;2023-04-08T08:53:38;101607.41;;;8.17;100.00
4836;BME280;66719;51.226;6.902;2023-04-08T08:56:10;101612.63;;;8.20;100.00
4836;BME280;66719;51.226;6.902;2023-04-08T08:58:40;101616.09;;;8.22;100.00
4836;BME280;66719;51.226;6.902;2023-04-08T09:01:32;101619.59;;;8.25;100.00
4836;BME280;66719;51.226;6.902;2023-04-08T09:04:16;101619.59;;;8.21;100.00
4836;BME280;66719;51.226;6.902;2023-04-08T09:06:46;101620.44;;;8.19;100.00
4836;BME280;66719;51.226;6.902;2023-04-08T09:09:16;101618.72;;;8.19;100.00
4836;BME280;66719;51.226;6.902;2023-04-08T09:11:44;101609.16;;;8.21;100.00
4836;BME280;66719;51.226;6.902;2023-04-08T09:14:22;101618.69;;;8.18;100.00
4836;BME280;66719;51.226;6.902;2023-04-08T09:16:50;101617.84;;;8.22;100.00
4836;BME280;66719;51.226;6.902;2023-04-08T09:19:17;101628.28;;;8.22;100.00
4836;BME280;66719;51.226;6.902;2023-04-08T09:21:44;101623.97;;;8.26;100.00
4836;BME280;66719;51.226;6.902;2023-04-08T09:24:27;101627.53;;;8.37;100.00
4836;BME280;66719;51.226;6.902;2023-04-08T09:26:54;101624.94;;;8.40;100.00
4836;BME280;66719;51.226;6.902;2023-04-08T09:29:25;101627.56;;;8.47;100.00
4836;BME280;66719;51.226;6.902;2023-04-08T09:32:00;101631.94;;;8.45;100.00
4836;BME280;66719;51.226;6.902;2023-04-08T09:34:29;101631.97;;;8.55;100.00
4836;BME280;66719;51.226;6.902;2023-04-08T09:36:57;101638.09;;;8.66;100.00
4836;BME280;66719;51.226;6.902;2023-04-08T09:39:24;101639.91;;;8.82;100.00
4836;BME280;66719;51.226;6.902;2023-04-08T09:41:51;101644.25;;;8.83;100.00
4836;BME280;66719;51.226;6.902;2023-04-08T09:44:19;101651.22;;;8.83;100.00
4836;BME280;66719;51.226;6.902;2023-04-08T09:49:26;101651.19;;;8.73;100.00
4836;BME280;66719;51.226;6.902;2023-04-08T09:52:14;101660.75;;;8.76;100.00
4836;BME280;66719;51.226;6.902;2023-04-08T09:55:03;101659.09;;;8.89;100.00
4836;BME280;66719;51.226;6.902;2023-04-08T09:58:02;101659.97;;;8.88;100.00
4836;BME280;66719;51.226;6.902;2023-04-08T10:00:49;101655.56;;;8.82;100.00
4836;BME280;66719;51.226;6.902;2023-04-08T10:03:39;101658.19;;;8.81;100.00
4836;BME280;66719;51.226;6.902;2023-04-08T10:06:07;101662.53;;;8.78;100.00
4836;BME280;66719;51.226;6.902;2023-04-08T10:08:35;101658.25;;;9.00;100.00
4836;BME280;66719;51.226;6.902;2023-04-08T10:11:02;101657.41;;;9.11;100.00
4836;BME280;66719;51.226;6.902;2023-04-08T10:13:29;101660.06;;;9.27;100.00
4836;BME280;66719;51.226;6.902;2023-04-08T10:16:25;101656.59;;;9.33;100.00
4836;BME280;66719;51.226;6.902;2023-04-08T10:18:53;101663.53;;;9.23;100.00
4836;BME280;66719;51.226;6.902;2023-04-08T10:23:58;101648.72;;;9.28;100.00
4836;BME280;66719;51.226;6.902;2023-04-08T10:26:30;101657.44;;;9.26;100.00
4836;BME280;66719;51.226;6.902;2023-04-08T10:31:44;101665.28;;;9.21;100.00
4836;BME280;66719;51.226;6.902;2023-04-08T10:34:18;101669.63;;;9.27;100.00
4836;BME280;66719;51.226;6.902;2023-04-08T10:36:45;101672.28;;;9.31;100.00
4836;BME280;66719;51.226;6.902;2023-04-08T10:39:12;101680.13;;;9.41;100.00
4836;BME280;66719;51.226;6.902;2023-04-08T10:41:47;101668.78;;;9.45;100.00
4836;BME280;66719;51.226;6.902;2023-04-08T10:44:19;101669.66;;;9.54;100.00
4836;BME280;66719;51.226;6.902;2023-04-08T10:46:47;101667.06;;;9.50;100.00
4836;BME280;66719;51.226;6.902;2023-04-08T10:49:15;101656.63;;;9.48;100.00
4836;BME280;66719;51.226;6.902;2023-04-08T10:51:43;101654.88;;;9.58;100.00
4836;BME280;66719;51.226;6.902;2023-04-08T10:54:12;101658.38;;;9.66;100.00
4836;BME280;66719;51.226;6.902;2023-04-08T10:59:13;101653.97;;;9.97;100.00
4836;BME280;66719;51.226;6.902;2023-04-08T11:01:43;101660.09;;;10.01;100.00
4836;BME280;66719;51.226;6.902;2023-04-08T11:04:15;101659.22;;;10.08;100.00
4836;BME280;66719;51.226;6.902;2023-04-08T11:06:45;101667.94;;;10.13;100.00
4836;BME280;66719;51.226;6.902;2023-04-08T11:09:13;101658.34;;;10.19;100.00
4836;BME280;66719;51.226;6.902;2023-04-08T11:11:43;101658.34;;;10.19;100.00
4836;BME280;66719;51.226;6.902;2023-04-08T11:14:11;101657.47;;;10.17;100.00
4836;BME280;66719;51.226;6.902;2023-04-08T11:16:38;101661.84;;;10.08;100.00
4836;BME280;66719;51.226;6.902;2023-04-08T11:19:05;101660.97;;;10.04;100.00
4836;BME280;66719;51.226;6.902;2023-04-08T11:21:36;101652.25;;;10.02;100.00
4836;BME280;66719;51.226;6.902;2023-04-08T11:24:08;101664.44;;;9.99;100.00
4836;BME280;66719;51.226;6.902;2023-04-08T11:26:35;101660.13;;;9.99;100.00
4836;BME280;66719;51.226;6.902;2023-04-08T11:29:03;101673.19;;;9.93;100.00
4836;BME280;66719;51.226;6.902;2023-04-08T11:31:32;101672.28;;;9.89;100.00
4836;BME280;66719;51.226;6.902;2023-04-08T11:33:59;101672.31;;;9.91;100.00
4836;BME280;66719;51.226;6.902;2023-04-08T11:36:28;101674.06;;;9.90;100.00
4836;BME280;66719;51.226;6.902;2023-04-08T11:38:55;101669.72;;;9.91;100.00
4836;BME280;66719;51.226;6.902;2023-04-08T11:41:22;101670.59;;;9.82;100.00
4836;BME280;66719;51.226;6.902;2023-04-08T11:43:53;101664.47;;;9.80;100.00
4836;BME280;66719;51.226;6.902;2023-04-08T11:46:20;101660.97;;;9.80;100.00
4836;BME280;66719;51.226;6.902;2023-04-08T11:49:04;101668.81;;;9.87;100.00
4836;BME280;66719;51.226;6.902;2023-04-08T11:51:32;101666.22;;;9.84;100.00
4836;BME280;66719;51.226;6.902;2023-04-08T11:54:04;101669.69;;;9.89;100.00
4836;BME280;66719;51.226;6.902;2023-04-08T11:56:43;101668.84;;;9.75;100.00
4836;BME280;66719;51.226;6.902;2023-04-08T11:59:10;101665.31;;;9.72;100.00
4836;BME280;66719;51.226;6.902;2023-04-08T12:01:36;101672.31;;;9.74;100.00
4836;BME280;66719;51.226;6.902;2023-04-08T12:04:03;101664.47;;;9.74;100.00
4836;BME280;66719;51.226;6.902;2023-04-08T12:06:31;101665.34;;;9.76;100.00
4836;BME280;66719;51.226;6.902;2023-04-08T12:08:57;101672.31;;;9.71;100.00
4836;BME280;66719;51.226;6.902;2023-04-08T12:11:25;101671.41;;;9.63;100.00
4836;BME280;66719;51.226;6.902;2023-04-08T12:13:51;101673.16;;;9.64;100.00
4836;BME280;66719;51.226;6.902;2023-04-08T12:16:19;101674.91;;;9.62;100.00
4836;BME280;66719;51.226;6.902;2023-04-08T12:18:46;101688.84;;;9.53;100.00
4836;BME280;66719;51.226;6.902;2023-04-08T12:21:12;101682.72;;;9.44;100.00
4836;BME280;66719;51.226;6.902;2023-04-08T12:23:39;101677.50;;;9.41;100.00
4836;BME280;66719;51.226;6.902;2023-04-08T12:26:06;101679.25;;;9.43;100.00
4836;BME280;66719;51.226;6.902;2023-04-08T12:28:33;101684.47;;;9.43;100.00
4836;BME280;66719;51.226;6.902;2023-04-08T12:31:02;101683.63;;;9.47;100.00
4836;BME280;66719;51.226;6.902;2023-04-08T12:33:29;101684.50;;;9.48;100.00
4836;BME280;66719;51.226;6.902;2023-04-08T12:35:56;101686.22;;;9.64;100.00
4836;BME280;66719;51.226;6.902;2023-04-08T12:38:24;101681.88;;;9.81;100.00
4836;BME280;66719;51.226;6.902;2023-04-08T12:40:52;101689.75;;;9.97;100.00
4836;BME280;66719;51.226;6.902;2023-04-08T12:43:19;101681.03;;;9.85;100.00
4836;BME280;66719;51.226;6.902;2023-04-08T12:45:46;101692.34;;;9.87;100.00
4836;BME280;66719;51.226;6.902;2023-04-08T12:48:14;101692.38;;;9.83;100.00
4836;BME280;66719;51.226;6.902;2023-04-08T12:50:40;101684.50;;;9.87;100.00
4836;BME280;66719;51.226;6.902;2023-04-08T12:53:07;101681.91;;;9.94;100.00
4836;BME280;66719;51.226;6.902;2023-04-08T12:55:33;101679.28;;;9.97;100.00
4836;BME280;66719;51.226;6.902;2023-04-08T12:58:00;101684.50;;;9.89;100.00
4836;BME280;66719;51.226;6.902;2023-04-08T13:00:27;101670.56;;;9.88;100.00
4836;BME280;66719;51.226;6.902;2023-04-08T13:02:53;101672.31;;;10.02;100.00
4836;BME280;66719;51.226;6.902;2023-04-08T13:05:20;101679.25;;;10.15;100.00
4836;BME280;66719;51.226;6.902;2023-04-08T13:07:58;101676.66;;;10.29;100.00
4836;BME280;66719;51.226;6.902;2023-04-08T13:10:24;101673.16;;;10.36;100.00
4836;BME280;66719;51.226;6.902;2023-04-08T13:12:52;101682.75;;;10.44;100.00
4836;BME280;66719;51.226;6.902;2023-04-08T13:15:18;101679.28;;;10.30;100.00
4836;BME280;66719;51.226;6.902;2023-04-08T13:17:45;101670.56;;;10.22;100.00
4836;BME280;66719;51.226;6.902;2023-04-08T13:20:11;101671.41;;;10.42;100.00
4836;BME280;66719;51.226;6.902;2023-04-08T13:22:37;101673.94;;;10.71;100.00